Time;durP1;ratioP1;P1;durP2;ratioP2;P2;SDS_P1;SDS_P2;PMS_P1;PMS_P2;Temp;Humidity;BMP_temperature;BMP_pressure;BME280_temperature;BME280_humidity;BME280_pressure;Samples;Min_cycle;Max_cycle;Signal;HPM_P1;HPM_P2
2023/03/23 00:01:19;;;;;;;3.90;2.88;;;;;;;9.69;100.00;99824.44;4935429;29;20101;-81
2023/03/23 00:03:46;;;;;;;3.45;2.70;;;;;;;9.74;100.00;99819.88;4944153;28;20082;-80
2023/03/23 00:06:16;;;;;;;4.78;3.30;;;;;;;9.76;100.00;99821.59;4949555;28;20133;-82
2023/03/23 00:08:47;;;;;;;6.45;3.15;;;;;;;9.70;100.00;99815.63;4953712;28;20073;-80
2023/03/23 00:11:20;;;;;;;4.55;3.45;;;;;;;9.65;100.00;99814.88;4935255;29;20130;-81
2023/03/23 00:13:51;;;;;;;3.80;2.90;;;;;;;9.67;100.00;99818.34;4950064;28;20057;-80
2023/03/23 00:16:17;;;;;;;5.80;3.47;;;;;;;9.66;100.00;99816.63;4954516;28;20073;-80
2023/03/23 00:18:52;;;;;;;3.55;3.10;;;;;;;9.62;100.00;99813.22;4954848;28;20043;-80
2023/03/23 00:21:32;;;;;;;3.80;2.85;;;;;;;9.68;100.00;99805.13;4935806;29;20055;-80
2023/03/23 00:24:00;;;;;;;4.07;3.20;;;;;;;9.70;100.00;99808.56;4937947;28;20035;-80
2023/03/23 00:26:28;;;;;;;5.05;3.00;;;;;;;9.68;100.00;99804.25;4970553;28;20041;-80
2023/03/23 00:28:54;;;;;;;4.07;2.88;;;;;;;9.62;100.00;99807.09;4953620;28;20077;-80
2023/03/23 00:31:20;;;;;;;5.32;3.15;;;;;;;9.59;100.00;99805.41;4938642;28;20105;-80
2023/03/23 00:33:46;;;;;;;5.57;3.03;;;;;;;9.55;100.00;99798.47;4922048;28;20054;-79
2023/03/23 00:36:12;;;;;;;3.30;2.88;;;;;;;9.46;100.00;99793.50;4936007;28;20081;-79
2023/03/23 00:38:39;;;;;;;4.57;2.58;;;;;;;9.43;100.00;99794.44;4954562;28;20041;-80
2023/03/23 00:41:05;;;;;;;3.95;2.80;;;;;;;9.38;100.00;99801.63;4951398;28;20494;-79
2023/03/23 00:43:31;;;;;;;5.03;3.67;;;;;;;9.32;100.00;99794.75;4929723;28;20054;-79
2023/03/23 00:46:00;;;;;;;4.32;3.33;;;;;;;9.27;100.00;99785.25;4954341;28;20038;-80
2023/03/23 00:48:28;;;;;;;3.90;2.92;;;;;;;9.21;100.00;99786.28;4938118;28;20047;-80
2023/03/23 00:50:54;;;;;;;3.05;2.60;;;;;;;9.19;100.00;99782.84;4930166;29;20042;-80
2023/03/23 00:53:19;;;;;;;3.92;2.50;;;;;;;9.13;100.00;99784.78;4938118;28;20118;-80
2023/03/23 00:55:47;;;;;;;3.35;2.50;;;;;;;9.08;100.00;99778.78;4937264;28;20548;-79
2023/03/23 00:58:16;;;;;;;5.57;2.97;;;;;;;9.03;100.00;99763.97;4938594;28;20039;-79
2023/03/23 01:00:42;;;;;;;3.42;2.67;;;;;;;9.00;100.00;99743.00;4931449;29;20036;-79
2023/03/23 01:03:11;;;;;;;4.97;2.60;;;;;;;8.94;100.00;99732.63;4954566;28;20054;-79
2023/03/23 01:05:38;;;;;;;4.43;2.90;;;;;;;8.97;100.00;99740.44;4916401;28;20492;-78
2023/03/23 01:08:05;;;;;;;4.83;2.80;;;;;;;8.87;100.00;99746.88;4922549;28;20070;-79
2023/03/23 01:10:32;;;;;;;3.75;2.55;;;;;;;8.83;100.00;99745.25;4938232;28;20051;-79
2023/03/23 01:13:01;;;;;;;3.95;2.50;;;;;;;8.82;100.00;99758.44;4921013;28;20141;-79
2023/03/23 01:15:28;;;;;;;5.00;2.90;;;;;;;8.82;100.00;99753.16;4938748;28;20050;-79
2023/03/23 01:17:53;;;;;;;3.77;2.97;;;;;;;8.84;100.00;99754.88;4954286;28;20042;-79
2023/03/23 01:20:20;;;;;;;5.20;3.00;;;;;;;8.88;100.00;99758.28;4923009;28;20050;-79
2023/03/23 01:22:46;;;;;;;4.47;2.50;;;;;;;8.84;100.00;99743.47;4937482;28;20050;-79
2023/03/23 01:25:12;;;;;;;3.70;2.50;;;;;;;8.90;100.00;99745.91;4938118;28;20126;-79
2023/03/23 01:27:41;;;;;;;3.57;2.50;;;;;;;8.95;100.00;99736.97;4951355;28;20126;-79
2023/03/23 01:30:11;;;;;;;3.87;3.00;;;;;;;8.84;100.00;99741.69;4954023;28;20035;-79
2023/03/23 01:32:36;;;;;;;3.30;2.40;;;;;;;8.90;100.00;99743.28;4935919;28;20039;-79
2023/03/23 01:35:05;;;;;;;4.00;2.67;;;;;;;8.87;100.00;99746.00;4920986;28;20043;-79
2023/03/23 01:37:31;;;;;;;3.83;2.53;;;;;;;8.94;100.00;99739.66;4925356;29;20158;-79
2023/03/23 01:39:57;;;;;;;3.40;2.10;;;;;;;8.93;100.00;99724.78;4934825;28;20126;-79
2023/03/23 01:42:30;;;;;;;3.33;2.80;;;;;;;8.90;100.00;99723.06;4950966;29;20043;-79
2023/03/23 01:45:34;;;;;;;5.60;3.08;;;;;;;9.00;100.00;99727.19;4934753;28;20053;-79
2023/03/23 01:48:03;;;;;;;3.53;2.42;;;;;;;8.97;100.00;99719.34;4935298;29;20039;-79
2023/03/23 01:50:34;;;;;;;4.50;2.55;;;;;;;8.98;100.00;99728.13;4930839;28;20054;-79
2023/03/23 01:53:08;;;;;;;3.13;2.47;;;;;;;8.98;100.00;99728.13;4923953;28;20038;-79
2023/03/23 01:55:36;;;;;;;3.90;2.40;;;;;;;8.98;100.00;99723.72;4941342;28;20439;-79
2023/03/23 01:58:02;;;;;;;4.25;2.38;;;;;;;9.02;100.00;99716.59;4933211;28;20047;-79
2023/03/23 02:00:29;;;;;;;4.00;2.50;;;;;;;9.03;100.00;99716.53;4938633;28;20130;-79
2023/03/23 02:02:57;;;;;;;3.85;2.38;;;;;;;9.21;100.00;99730.94;4941517;28;20038;-79
2023/03/23 02:05:31;;;;;;;4.63;2.70;;;;;;;9.17;100.00;99718.78;4953947;28;20047;-79
2023/03/23 02:08:02;;;;;;;4.22;2.92;;;;;;;9.16;100.00;99714.41;4957315;28;20118;-79
2023/03/23 02:10:30;;;;;;;3.55;2.05;;;;;;;9.16;100.00;99705.63;4942026;28;20066;-79
2023/03/23 02:12:57;;;;;;;3.60;2.53;;;;;;;9.26;100.00;99691.28;4940735;28;20049;-79
2023/03/23 02:15:25;;;;;;;4.30;2.30;;;;;;;9.30;100.00;99704.31;4944689;29;20071;-79
2023/03/23 02:17:56;;;;;;;4.30;2.63;;;;;;;9.33;100.00;99708.63;4922398;29;20137;-79
2023/03/23 02:20:31;;;;;;;4.03;2.60;;;;;;;9.33;100.00;99698.06;4936884;28;20054;-79
2023/03/23 02:23:26;;;;;;;3.17;2.10;;;;;;;9.32;100.00;99696.34;4953987;29;20050;-79
2023/03/23 02:25:58;;;;;;;3.70;2.50;;;;;;;9.35;100.00;99696.28;4925080;28;20051;-79
2023/03/23 02:28:42;;;;;;;3.45;2.28;;;;;;;9.37;100.00;99704.13;4957545;28;20049;-79
2023/03/23 02:31:28;;;;;;;3.17;2.38;;;;;;;9.38;100.00;99704.09;4956198;28;20481;-79
2023/03/23 02:33:57;;;;;;;3.10;2.22;;;;;;;9.37;100.00;99706.78;4956510;28;20038;-79
2023/03/23 02:36:47;;;;;;;4.15;2.40;;;;;;;9.38;100.00;99708.50;4924309;28;20042;-79
2023/03/23 02:39:37;;;;;;;3.53;2.55;;;;;;;9.43;100.00;99707.44;4973578;28;20089;-79
2023/03/23 02:42:08;;;;;;;3.60;2.50;;;;;;;9.41;100.00;99711.88;4955392;28;20133;-79
2023/03/23 02:44:36;;;;;;;3.88;2.83;;;;;;;9.48;100.00;99723.97;4953078;28;20038;-79
2023/03/23 02:47:05;;;;;;;4.43;2.35;;;;;;;9.47;100.00;99721.38;4942482;28;20050;-79
2023/03/23 02:49:32;;;;;;;3.20;2.42;;;;;;;9.44;100.00;99716.22;4940980;28;20393;-79
2023/03/23 02:51:59;;;;;;;3.40;2.53;;;;;;;9.40;100.00;99720.72;4926381;28;20093;-79
2023/03/23 02:54:26;;;;;;;3.97;2.90;;;;;;;9.53;100.00;99721.22;4940692;28;20050;-79
2023/03/23 02:56:52;;;;;;;3.63;3.05;;;;;;;9.48;100.00;99725.75;4928946;29;20131;-79
2023/03/23 02:59:18;;;;;;;3.90;3.08;;;;;;;9.34;100.00;99726.19;4917908;28;20046;-79
2023/03/23 03:01:43;;;;;;;4.05;2.80;;;;;;;9.30;100.00;99714.84;4947949;29;20094;-79
2023/03/23 03:04:15;;;;;;;4.15;2.95;;;;;;;9.24;100.00;99706.28;4964845;28;20074;-79
2023/03/23 03:06:56;;;;;;;4.80;3.17;;;;;;;9.22;100.00;99700.19;4953888;28;20078;-79
2023/03/23 03:09:57;;;;;;;4.00;2.80;;;;;;;9.27;100.00;99700.91;4955554;28;20121;-79
2023/03/23 03:12:46;;;;;;;4.03;2.70;;;;;;;9.15;100.00;99701.28;4970445;28;20039;-80
2023/03/23 03:15:29;;;;;;;4.00;2.88;;;;;;;9.08;100.00;99711.16;4940191;28;20047;-80
2023/03/23 03:18:02;;;;;;;4.10;2.83;;;;;;;9.01;100.00;99707.84;4956339;28;20073;-79
2023/03/23 03:20:29;;;;;;;4.10;2.97;;;;;;;9.00;100.00;99726.31;4956382;28;20614;-79
2023/03/23 03:22:54;;;;;;;3.55;2.90;;;;;;;8.95;100.00;99725.59;4939150;28;20055;-80
2023/03/23 03:25:23;;;;;;;4.30;3.03;;;;;;;8.92;100.00;99716.00;4939700;28;20039;-80
2023/03/23 03:27:49;;;;;;;4.43;3.20;;;;;;;8.93;100.00;99715.09;4950529;28;20396;-79
2023/03/23 03:30:17;;;;;;;3.17;2.67;;;;;;;8.91;100.00;99722.19;4940033;28;20162;-79
2023/03/23 03:32:48;;;;;;;3.20;2.85;;;;;;;8.90;100.00;99720.44;4935629;28;20070;-79
2023/03/23 03:35:15;;;;;;;4.45;2.70;;;;;;;8.86;100.00;99712.69;4937328;28;20050;-79
2023/03/23 03:37:41;;;;;;;4.07;2.88;;;;;;;8.82;100.00;99714.50;4939304;28;20038;-79
2023/03/23 03:40:11;;;;;;;3.42;3.13;;;;;;;8.81;100.00;99718.06;4939557;28;20046;-79
2023/03/23 03:42:44;;;;;;;5.20;3.40;;;;;;;8.81;100.00;99707.53;4938440;28;20047;-79
2023/03/23 03:45:13;;;;;;;4.10;3.20;;;;;;;8.81;100.00;99701.41;4939031;28;20101;-79
2023/03/23 03:47:39;;;;;;;4.90;3.13;;;;;;;8.77;100.00;99703.28;4956495;28;20053;-79
2023/03/23 03:50:05;;;;;;;5.43;3.50;;;;;;;8.77;100.00;99700.63;4938926;28;20074;-79
2023/03/23 03:52:31;;;;;;;5.43;3.80;;;;;;;8.76;100.00;99698.91;4954884;28;20050;-80
2023/03/23 03:54:57;;;;;;;4.55;3.50;;;;;;;8.76;100.00;99701.53;4939420;28;20519;-77
2023/03/23 03:57:23;;;;;;;5.73;3.70;;;;;;;8.72;100.00;99711.28;4954900;28;20038;-78
2023/03/23 03:59:49;;;;;;;4.30;3.60;;;;;;;8.70;100.00;99709.59;4956305;28;20039;-79
2023/03/23 04:02:19;;;;;;;4.25;3.40;;;;;;;8.74;100.00;99719.13;4925576;28;20109;-78
2023/03/23 04:04:49;;;;;;;4.40;3.60;;;;;;;8.73;100.00;99713.00;4939848;28;20042;-79
2023/03/23 04:07:17;;;;;;;6.93;3.72;;;;;;;8.71;100.00;99708.69;4957115;28;20045;-78
2023/03/23 04:09:46;;;;;;;6.07;3.70;;;;;;;8.70;100.00;99713.09;4938853;28;20051;-78
2023/03/23 04:12:12;;;;;;;4.30;3.47;;;;;;;8.69;100.00;99700.84;4952579;28;20505;-80
2023/03/23 04:14:38;;;;;;;5.53;3.58;;;;;;;8.71;100.00;99695.53;4934943;28;20138;-78
2023/03/23 04:17:03;;;;;;;5.43;4.00;;;;;;;8.74;100.00;99690.16;4939613;28;20500;-78
2023/03/23 04:19:32;;;;;;;4.50;3.10;;;;;;;8.71;100.00;99690.28;4939869;28;20046;-78
2023/03/23 04:21:58;;;;;;;5.43;4.07;;;;;;;8.71;100.00;99692.91;5047444;23;20047;-79
2023/03/23 04:24:24;;;;;;;4.80;3.97;;;;;;;8.70;100.00;99693.81;4952180;28;20042;-78
2023/03/23 04:26:51;;;;;;;4.77;4.27;;;;;;;8.69;100.00;99694.72;4970388;28;20506;-79
2023/03/23 04:29:18;;;;;;;4.88;3.95;;;;;;;8.68;100.00;99695.63;4937880;28;20126;-80
2023/03/23 04:31:45;;;;;;;6.00;4.03;;;;;;;8.68;100.00;99685.97;4934196;29;20035;-79
2023/03/23 04:34:13;;;;;;;5.67;4.10;;;;;;;8.69;100.00;99695.59;4916282;29;20047;-79
2023/03/23 04:36:40;;;;;;;5.35;3.50;;;;;;;8.72;100.00;99697.25;4947254;28;20031;-79
2023/03/23 04:39:09;;;;;;;6.17;4.03;;;;;;;8.68;100.00;99706.16;4939895;29;20039;-78
2023/03/23 04:41:36;;;;;;;4.67;3.93;;;;;;;8.70;100.00;99691.19;4921685;29;20046;-80
2023/03/23 04:44:02;;;;;;;4.93;3.90;;;;;;;8.69;100.00;99705.25;4935867;29;20051;-80
2023/03/23 04:46:31;;;;;;;5.67;4.30;;;;;;;8.69;100.00;99700.00;4935778;29;20507;-80
2023/03/23 04:49:00;;;;;;;4.60;4.10;;;;;;;8.69;100.00;99700.84;4937826;29;20540;-80
2023/03/23 04:51:26;;;;;;;5.37;4.30;;;;;;;8.85;100.00;99709.19;4926665;28;20496;-80
2023/03/23 04:53:53;;;;;;;6.93;4.50;;;;;;;8.78;100.00;99705.00;4953699;28;20074;-81
2023/03/23 04:56:18;;;;;;;4.78;4.10;;;;;;;8.80;100.00;99695.28;4917984;29;20051;-78
2023/03/23 04:58:44;;;;;;;6.43;4.40;;;;;;;8.76;100.00;99700.69;4922749;29;20036;-78
2023/03/23 05:01:13;;;;;;;5.57;4.30;;;;;;;8.80;100.00;99704.94;4953048;28;20416;-78
2023/03/23 05:03:40;;;;;;;5.53;4.22;;;;;;;8.80;100.00;99697.03;4922768;29;20142;-78
2023/03/23 05:06:06;;;;;;;8.00;4.80;;;;;;;8.79;100.00;99695.31;4935180;29;20032;-78
2023/03/23 05:08:32;;;;;;;5.70;4.40;;;;;;;8.79;100.00;99701.44;4930458;29;20047;-77
2023/03/23 05:10:59;;;;;;;5.13;4.50;;;;;;;8.74;100.00;99695.44;4932179;29;20061;-78
2023/03/23 05:13:25;;;;;;;7.25;4.38;;;;;;;8.74;100.00;99693.69;4937057;29;20149;-78
2023/03/23 05:15:50;;;;;;;6.07;4.82;;;;;;;8.85;100.00;99690.75;4943936;28;20677;-78
2023/03/23 05:18:16;;;;;;;7.32;5.40;;;;;;;8.89;100.00;99688.88;4940052;29;20047;-78
2023/03/23 05:20:42;;;;;;;6.40;4.60;;;;;;;8.93;100.00;99687.88;4934139;29;20040;-79
2023/03/23 05:23:09;;;;;;;8.93;5.23;;;;;;;8.91;100.00;99685.31;4917403;29;20055;-79
2023/03/23 05:25:39;;;;;;;5.53;4.30;;;;;;;8.92;100.00;99687.03;4924095;29;20047;-78
2023/03/23 05:28:04;;;;;;;6.90;4.90;;;;;;;8.95;100.00;99686.06;4932168;29;20122;-78
2023/03/23 05:30:30;;;;;;;5.60;4.30;;;;;;;8.85;100.00;99684.63;4914575;29;20102;-78
2023/03/23 05:32:56;;;;;;;5.70;4.50;;;;;;;8.83;100.00;99678.50;4922795;29;20050;-78
2023/03/23 05:35:22;;;;;;;5.60;4.63;;;;;;;8.92;100.00;99692.31;4906035;29;20043;-78
2023/03/23 05:37:53;;;;;;;6.40;4.97;;;;;;;8.91;100.00;99695.84;4922673;29;20035;-79
2023/03/23 05:40:19;;;;;;;5.17;4.50;;;;;;;8.86;100.00;99695.09;4944372;28;20043;-78
2023/03/23 05:42:45;;;;;;;7.97;4.80;;;;;;;8.90;100.00;99693.22;4925801;29;20038;-80
2023/03/23 05:45:12;;;;;;;6.43;4.77;;;;;;;8.84;100.00;99696.06;4920785;29;20432;-79
2023/03/23 05:47:39;;;;;;;8.57;4.80;;;;;;;8.95;100.00;99689.56;4920058;29;20489;-80
2023/03/23 05:50:06;;;;;;;6.32;4.65;;;;;;;8.89;100.00;99689.72;4935772;29;20039;-79
2023/03/23 05:52:35;;;;;;;7.63;4.68;;;;;;;8.92;100.00;99691.44;4933085;29;20035;-77
2023/03/23 05:55:01;;;;;;;6.22;4.50;;;;;;;9.00;100.00;99692.09;4925198;29;20047;-78
2023/03/23 05:57:27;;;;;;;6.53;5.03;;;;;;;9.01;100.00;99686.75;4930981;29;20070;-78
2023/03/23 05:59:53;;;;;;;6.85;5.25;;;;;;;9.02;100.00;99683.22;4955968;29;20043;-78
2023/03/23 06:02:18;;;;;;;5.67;4.23;;;;;;;9.06;100.00;99688.38;4938129;29;20051;-77
2023/03/23 06:04:44;;;;;;;5.85;4.32;;;;;;;9.02;100.00;99688.47;4924893;29;20105;-78
2023/03/23 06:07:14;;;;;;;7.95;6.13;;;;;;;9.02;100.00;99687.63;4939980;29;20063;-78
2023/03/23 06:09:40;;;;;;;7.17;4.53;;;;;;;9.16;100.00;99684.56;4937409;29;20087;-78
2023/03/23 06:12:07;;;;;;;7.38;5.05;;;;;;;9.14;100.00;99689.88;4955955;28;20051;-77
2023/03/23 06:14:33;;;;;;;10.43;4.90;;;;;;;9.18;100.00;99685.41;4924924;29;20129;-78
2023/03/23 06:16:58;;;;;;;7.07;4.50;;;;;;;9.16;100.00;99690.69;4956900;29;20077;-78
2023/03/23 06:19:26;;;;;;;6.55;4.50;;;;;;;9.13;100.00;99682.03;4939141;29;20138;-77
2023/03/23 06:21:54;;;;;;;4.93;4.03;;;;;;;9.14;100.00;99691.66;4930002;29;20036;-78
2023/03/23 06:24:19;;;;;;;11.90;4.47;;;;;;;9.26;100.00;99693.94;4923664;29;20058;-79
2023/03/23 06:26:45;;;;;;;5.72;4.18;;;;;;;9.22;100.00;99701.03;4940588;29;20043;-78
2023/03/23 06:29:11;;;;;;;6.60;4.38;;;;;;;9.28;100.00;99686.84;4941074;29;20066;-78
2023/03/23 06:31:48;;;;;;;4.63;3.80;;;;;;;9.28;100.00;99685.06;4909527;29;20408;-77
2023/03/23 06:34:14;;;;;;;6.05;4.70;;;;;;;9.33;100.00;99687.53;4921513;29;20039;-79
2023/03/23 06:36:40;;;;;;;4.90;4.10;;;;;;;9.27;100.00;99685.97;4921349;29;20042;-78
2023/03/23 06:39:05;;;;;;;6.53;4.47;;;;;;;9.38;100.00;99690.03;4938470;29;20043;-78
2023/03/23 06:41:32;;;;;;;5.50;4.63;;;;;;;9.38;100.00;99684.78;4923112;29;20051;-77
2023/03/23 06:43:58;;;;;;;7.03;4.20;;;;;;;9.39;100.00;99689.13;4921691;29;20591;-78
2023/03/23 06:46:23;;;;;;;5.85;4.30;;;;;;;9.38;100.00;99679.50;4939871;29;20493;-78
2023/03/23 06:48:50;;;;;;;6.63;4.87;;;;;;;9.42;100.00;99687.28;4956477;29;20051;-78
2023/03/23 06:51:16;;;;;;;6.18;4.40;;;;;;;9.34;100.00;99686.66;4954136;28;20066;-78
2023/03/23 06:53:42;;;;;;;5.20;4.18;;;;;;;9.37;100.00;99694.44;4958739;29;20535;-78
2023/03/23 06:56:08;;;;;;;5.28;3.92;;;;;;;9.34;100.00;99694.56;4939644;29;20043;-77
2023/03/23 06:58:34;;;;;;;6.45;4.47;;;;;;;9.49;100.00;99690.56;4939840;29;20118;-78
2023/03/23 07:01:00;;;;;;;5.20;3.85;;;;;;;9.41;100.00;99690.78;4924711;29;20040;-78
2023/03/23 07:03:27;;;;;;;6.20;4.55;;;;;;;9.49;100.00;99686.16;4923145;29;20071;-77
2023/03/23 07:05:54;;;;;;;6.78;4.72;;;;;;;9.47;100.00;99682.69;4942656;28;20515;-78
2023/03/23 07:08:20;;;;;;;8.88;4.70;;;;;;;9.48;100.00;99684.44;4941534;29;20053;-77
2023/03/23 07:10:46;;;;;;;5.38;4.25;;;;;;;9.45;100.00;99686.31;4925950;29;20071;-77
2023/03/23 07:13:11;;;;;;;6.10;4.10;;;;;;;9.38;100.00;99680.34;4948326;28;20042;-78
2023/03/23 07:15:38;;;;;;;6.03;4.00;;;;;;;9.56;100.00;99679.78;4961054;28;20053;-77
2023/03/23 07:18:04;;;;;;;6.05;4.18;;;;;;;9.48;100.00;99691.47;4942650;29;20122;-78
2023/03/23 07:20:30;;;;;;;7.68;4.13;;;;;;;9.59;100.00;99689.38;4941097;29;20519;-78
2023/03/23 07:22:55;;;;;;;6.57;4.15;;;;;;;9.54;100.00;99699.19;4940378;29;20053;-78
2023/03/23 07:25:21;;;;;;;5.35;4.00;;;;;;;9.57;100.00;99685.91;4942362;29;20138;-79
2023/03/23 07:27:47;;;;;;;5.78;4.07;;;;;;;9.55;100.00;99699.16;4957813;29;20066;-78
2023/03/23 07:30:14;;;;;;;6.38;4.50;;;;;;;9.57;100.00;99681.50;4941132;29;20051;-78
2023/03/23 07:32:40;;;;;;;6.45;4.20;;;;;;;9.62;100.00;99677.88;4939431;29;20074;-79
2023/03/23 07:35:06;;;;;;;5.72;4.65;;;;;;;9.68;100.00;99672.41;4921864;29;20509;-80
2023/03/23 07:37:32;;;;;;;6.07;4.45;;;;;;;9.73;100.00;99671.31;4923064;29;20051;-79
2023/03/23 07:39:57;;;;;;;6.70;4.28;;;;;;;9.72;100.00;99642.34;4932601;29;20047;-78
2023/03/23 07:42:23;;;;;;;6.93;4.22;;;;;;;9.75;100.00;99648.41;4952947;28;20036;-80
2023/03/23 07:44:49;;;;;;;7.72;4.43;;;;;;;9.81;100.00;99655.25;4927992;29;20481;-80
2023/03/23 07:47:14;;;;;;;6.95;4.22;;;;;;;9.78;100.00;99648.28;4932757;29;20050;-79
2023/03/23 07:49:40;;;;;;;6.65;3.97;;;;;;;9.90;100.00;99640.88;4938339;29;20066;-80
2023/03/23 07:52:06;;;;;;;6.65;3.92;;;;;;;9.90;100.00;99641.72;4922196;29;20527;-80
2023/03/23 07:54:32;;;;;;;6.30;3.90;;;;;;;9.92;100.00;99653.13;4920106;29;20044;-78
2023/03/23 07:56:57;;;;;;;5.18;3.75;;;;;;;9.94;100.00;99674.16;4960081;28;20035;-81
2023/03/23 07:59:23;;;;;;;8.60;4.40;;;;;;;10.06;100.00;99684.31;4949113;28;20059;-79
2023/03/23 08:01:48;;;;;;;7.97;3.80;;;;;;;10.12;100.00;99684.97;4922144;29;20071;-79
2023/03/23 08:04:15;;;;;;;4.88;3.75;;;;;;;10.16;100.00;99683.06;4952090;28;20043;-80
2023/03/23 08:06:41;;;;;;;5.78;4.00;;;;;;;10.19;100.00;99680.34;4936853;29;20070;-78
2023/03/23 08:09:08;;;;;;;6.55;3.47;;;;;;;10.22;100.00;99680.25;4920319;28;20082;-79
2023/03/23 08:11:38;;;;;;;6.82;3.92;;;;;;;10.26;100.00;99687.16;4938041;29;20039;-78
2023/03/23 08:14:04;;;;;;;5.22;3.47;;;;;;;10.24;100.00;99685.47;4936907;28;20079;-81
2023/03/23 08:16:29;;;;;;;4.57;3.13;;;;;;;10.22;100.00;99680.25;4943886;29;20121;-79
2023/03/23 08:18:56;;;;;;;11.20;3.33;;;;;;;10.29;100.00;99679.13;4940268;28;20435;-78
2023/03/23 08:21:22;;;;;;;4.60;3.35;;;;;;;10.28;100.00;99680.06;4935282;28;20051;-80
2023/03/23 08:23:48;;;;;;;5.50;3.50;;;;;;;10.30;100.00;99680.00;4921082;29;20154;-80
2023/03/23 08:26:15;;;;;;;4.10;3.47;;;;;;;10.41;100.00;99685.75;4937402;29;20041;-79
2023/03/23 08:28:40;;;;;;;6.18;3.13;;;;;;;10.54;100.00;99680.91;4937516;29;20061;-80
2023/03/23 08:31:07;;;;;;;5.65;3.10;;;;;;;10.68;100.00;99684.78;4920973;29;20047;-78
2023/03/23 08:33:33;;;;;;;4.10;2.92;;;;;;;10.73;100.00;99692.53;4931488;29;20506;-78
2023/03/23 08:36:00;;;;;;;3.15;2.60;;;;;;;10.74;100.00;99686.31;4953371;29;20122;-79
2023/03/23 08:38:27;;;;;;;4.20;2.65;;;;;;;10.76;100.00;99686.25;4952159;28;20090;-79
2023/03/23 08:40:58;;;;;;;5.57;2.80;;;;;;;10.74;100.00;99686.31;4936098;29;20035;-79
2023/03/23 08:43:23;;;;;;;5.30;3.13;;;;;;;10.84;100.00;99687.69;4919749;29;20057;-79
2023/03/23 08:45:49;;;;;;;5.35;2.53;;;;;;;10.87;100.00;99695.53;4943916;28;20043;-81
2023/03/23 08:48:15;;;;;;;3.25;2.35;;;;;;;10.90;100.00;99700.69;4945419;29;20047;-79
2023/03/23 08:50:40;;;;;;;4.88;2.90;;;;;;;10.89;100.00;99677.81;4929633;29;20057;-79
2023/03/23 08:53:07;;;;;;;3.63;2.25;;;;;;;10.98;100.00;99682.75;4931228;29;20083;-79
2023/03/23 08:55:32;;;;;;;3.33;2.45;;;;;;;10.93;100.00;99681.19;4934464;28;20520;-79
2023/03/23 08:57:58;;;;;;;3.47;2.30;;;;;;;10.97;100.00;99696.91;4942698;29;20067;-79
2023/03/23 09:00:25;;;;;;;7.15;3.00;;;;;;;11.09;100.00;99705.28;4920722;29;20043;-78
2023/03/23 09:02:56;;;;;;;4.72;2.80;;;;;;;11.09;100.00;99702.63;4944402;28;20091;-79
2023/03/23 09:05:24;;;;;;;3.33;2.08;;;;;;;11.12;100.00;99700.75;4960088;28;20042;-79
2023/03/23 09:07:51;;;;;;;4.70;2.20;;;;;;;11.28;100.00;99699.25;4957105;28;20047;-80
2023/03/23 09:10:18;;;;;;;5.60;2.97;;;;;;;11.19;100.00;99699.59;4940393;28;20047;-79
2023/03/23 09:12:44;;;;;;;5.72;2.35;;;;;;;11.20;100.00;99709.25;4940008;28;20073;-79
2023/03/23 09:15:13;;;;;;;5.93;2.25;;;;;;;11.30;100.00;99701.81;4946560;29;20132;-78
2023/03/23 09:17:43;;;;;;;3.45;2.45;;;;;;;11.31;100.00;99700.03;4934985;29;20039;-80
2023/03/23 09:20:12;;;;;;;5.03;2.78;;;;;;;11.35;100.00;99696.34;4940656;29;20035;-80
2023/03/23 09:22:39;;;;;;;3.47;2.20;;;;;;;11.54;100.00;99692.06;4938215;29;20044;-79
2023/03/23 09:25:06;;;;;;;5.68;2.70;;;;;;;11.74;100.00;99693.91;4937242;28;20440;-78
2023/03/23 09:27:36;;;;;;;3.10;2.30;;;;;;;11.92;100.00;99690.53;4939132;29;20488;-78
2023/03/23 09:30:10;;;;;;;3.13;2.15;;;;;;;12.19;100.00;99680.59;4923823;29;20071;-79
2023/03/23 09:32:36;;;;;;;3.17;2.03;;;;;;;12.33;100.00;99685.28;4939546;29;20047;-80
2023/03/23 09:35:04;;;;;;;3.40;2.25;;;;;;;12.51;100.00;99679.19;4923816;29;20463;-79
2023/03/23 09:37:29;;;;;;;4.25;2.03;;;;;;;12.65;100.00;99678.56;4939990;29;20394;-79
2023/03/23 09:39:55;;;;;;;2.67;2.22;;;;;;;12.80;100.00;99690.28;4924779;29;20046;-79
2023/03/23 09:42:44;;;;;;;2.33;1.88;;;;;;;12.92;100.00;99676.47;4956107;28;20114;-79
2023/03/23 09:45:10;;;;;;;5.03;2.33;;;;;;;13.14;100.00;99682.50;4951998;29;20050;-80
2023/03/23 09:48:04;;;;;;;4.15;2.10;;;;;;;13.43;100.00;99675.84;4955113;28;20035;-80
2023/03/23 09:50:32;;;;;;;3.38;2.10;;;;;;;13.64;100.00;99675.78;4958041;29;20130;-79
2023/03/23 09:53:07;;;;;;;3.35;1.75;;;;;;;13.85;100.00;99685.31;4943300;29;20093;-80
2023/03/23 09:55:34;;;;;;;2.13;1.52;;;;;;;14.04;100.00;99680.84;4949470;29;20102;-79
2023/03/23 09:58:16;;;;;;;3.08;1.95;;;;;;;14.13;100.00;99683.97;4952492;29;20500;-79
2023/03/23 10:00:47;;;;;;;2.42;1.80;;;;;;;14.24;100.00;99681.59;4951407;29;20102;-79
2023/03/23 10:03:18;;;;;;;1.85;1.58;;;;;;;14.32;100.00;99684.72;4949112;29;20058;-79
2023/03/23 10:05:54;;;;;;;3.08;1.40;;;;;;;14.49;100.00;99683.91;4937419;29;20687;-81
2023/03/23 10:08:29;;;;;;;2.28;1.60;;;;;;;14.38;100.00;99689.75;4945864;29;20067;-79
2023/03/23 10:11:04;;;;;;;2.78;1.50;;;;;;;14.32;100.00;99685.59;4960955;29;20102;-79
2023/03/23 10:13:44;;;;;;;2.45;1.65;;;;;;;14.12;100.00;99706.97;4955493;29;20075;-81
2023/03/23 10:16:20;;;;;;;1.52;1.15;;;;;;;14.05;100.00;99694.97;4968400;28;20066;-81
2023/03/23 10:18:58;;;;;;;1.98;1.30;;;;;;;14.17;100.00;99701.44;4954220;29;20094;-80
2023/03/23 10:21:26;;;;;;;2.25;1.40;;;;;;;14.24;100.00;99700.22;4936507;28;20051;-80
2023/03/23 10:24:01;;;;;;;2.38;1.20;;;;;;;14.23;100.00;99701.16;4934455;29;20050;-78
2023/03/23 10:27:13;;;;;;;2.33;1.67;;;;;;;14.20;100.00;99690.66;4946367;29;20043;-81
2023/03/23 10:30:25;;;;;;;2.63;1.60;;;;;;;14.36;100.00;99683.63;4965461;28;20117;-79
2023/03/23 10:32:57;;;;;;;2.30;1.20;;;;;;;14.56;100.00;99680.00;4879466;29;20047;-80
2023/03/23 10:35:29;;;;;;;2.95;1.70;;;;;;;14.58;100.00;99678.94;4943937;29;20051;-80
2023/03/23 10:38:03;;;;;;;3.05;1.40;;;;;;;14.72;100.00;99678.25;4949317;29;20062;-79
2023/03/23 10:40:30;;;;;;;2.78;1.42;;;;;;;14.82;100.00;99676.81;4951121;29;20516;-80
2023/03/23 10:42:56;;;;;;;1.98;1.23;;;;;;;14.89;100.00;99674.69;4950857;29;20525;-80
2023/03/23 10:45:27;;;;;;;2.55;1.73;;;;;;;14.94;100.00;99669.94;4965861;29;20046;-80
2023/03/23 10:47:56;;;;;;;1.58;1.17;;;;;;;14.93;100.00;99657.59;4950844;29;20038;-79
2023/03/23 10:50:27;;;;;;;2.05;1.20;;;;;;;14.91;97.55;99670.13;4942841;29;20055;-80
2023/03/23 10:52:57;;;;;;;2.17;1.42;;;;;;;15.02;97.89;99667.72;4909985;29;20047;-81
2023/03/23 10:55:24;;;;;;;2.53;1.50;;;;;;;15.10;94.11;99664.66;4942397;29;20042;-79
2023/03/23 10:58:05;;;;;;;1.70;1.33;;;;;;;15.12;97.86;99663.63;4927895;29;20042;-80
2023/03/23 11:00:31;;;;;;;3.10;1.65;;;;;;;14.94;97.21;99669.94;4919402;29;20049;-81
2023/03/23 11:03:05;;;;;;;2.40;1.48;;;;;;;14.87;95.30;99674.72;4958371;29;20555;-79
2023/03/23 11:05:39;;;;;;;;;;;;;;;14.86;97.35;99680.13;4929433;29;20054;-78
2023/03/23 11:08:12;;;;;;;2.97;1.80;;;;;;;14.61;94.80;99681.44;4933041;29;19927;-79
2023/03/23 11:10:59;;;;;;;2.35;1.67;;;;;;;14.34;93.42;99682.84;4948731;29;20058;-80
2023/03/23 11:13:31;;;;;;;2.40;1.60;;;;;;;14.16;95.26;99694.41;4938141;29;20039;-80
2023/03/23 11:15:57;;;;;;;2.42;1.60;;;;;;;14.15;96.81;99687.38;4948028;29;20043;-78
2023/03/23 11:18:26;;;;;;;2.67;1.52;;;;;;;14.04;97.62;99704.72;4948756;29;20067;-79
2023/03/23 11:20:56;;;;;;;4.10;2.00;;;;;;;14.07;97.97;99693.94;4948703;29;20043;-80
2023/03/23 11:23:36;;;;;;;3.20;2.60;;;;;;;14.18;98.53;99689.88;4929906;29;20086;-80
2023/03/23 11:26:15;;;;;;;2.53;1.90;;;;;;;14.24;98.49;99703.72;4944912;29;20043;-82
2023/03/23 11:28:51;;;;;;;5.03;1.60;;;;;;;14.33;96.37;99699.75;4942859;29;20039;-80
2023/03/23 11:31:22;;;;;;;1.88;1.30;;;;;;;14.26;97.23;99704.50;4929602;28;20064;-79
2023/03/23 11:34:05;;;;;;;2.30;1.50;;;;;;;14.33;97.23;99708.56;4928696;29;20045;-79
2023/03/23 11:36:35;;;;;;;2.10;1.63;;;;;;;14.30;97.19;99708.72;4919631;29;20475;-80
2023/03/23 11:39:05;;;;;;;1.55;1.20;;;;;;;14.38;97.07;99713.66;4951353;29;20543;-80
2023/03/23 11:41:34;;;;;;;1.70;1.10;;;;;;;14.43;98.68;99718.72;4918290;29;20818;-78